createdAt,value
2019-04-23T00:01:43.304Z,38.17
2019-04-23T00:04:13.297Z,33.03
2019-04-23T00:06:57.825Z,33.50
2019-04-23T00:09:22.409Z,30.83
2019-04-23T00:11:57.801Z,29.37
2019-04-23T00:16:57.778Z,23.00
2019-04-23T00:19:24.781Z,21.03
2019-04-23T00:22:10.981Z,19.47
2019-04-23T00:25:19.190Z,17.13
2019-04-23T00:29:53.816Z,19.70
2019-04-23T00:32:32.296Z,19.80
2019-04-23T00:34:54.733Z,16.23
2019-04-23T00:37:31.592Z,11.73
2019-04-23T00:42:31.411Z,10.23
2019-04-23T00:44:57.179Z,9.80
2019-04-23T00:50:21.242Z,10.63
2019-04-23T00:52:32.170Z,10.60
2019-04-23T01:00:19.314Z,9.37
2019-04-23T01:02:48.849Z,9.80
2019-04-23T01:05:22.182Z,11.67
2019-04-23T01:07:44.454Z,11.37
2019-04-23T01:10:36.314Z,10.43
2019-04-23T01:13:09.257Z,8.97
2019-04-23T01:15:41.086Z,9.70
2019-04-23T01:18:14.015Z,9.53
2019-04-23T01:20:50.221Z,11.33
2019-04-23T01:23:03.421Z,9.73
2019-04-23T01:25:51.696Z,10.37
2019-04-23T01:28:40.008Z,10.47
2019-04-23T01:31:10.613Z,10.77
2019-04-23T01:36:21.910Z,8.80
2019-04-23T01:38:45.536Z,9.03
2019-04-23T01:41:20.625Z,9.83
2019-04-23T01:43:49.198Z,10.03
2019-04-23T01:46:23.480Z,10.27
2019-04-23T01:49:00.214Z,13.80
2019-04-23T01:51:26.232Z,13.00
2019-04-23T01:53:57.447Z,10.77
2019-04-23T01:56:30.859Z,7.53
2019-04-23T01:59:05.451Z,8.43
2019-04-23T02:01:43.311Z,7.67
2019-04-23T02:04:11.305Z,7.20
2019-04-23T02:06:38.614Z,7.17
2019-04-23T02:09:12.398Z,6.43
2019-04-23T02:11:49.061Z,7.13
2019-04-23T02:14:16.369Z,7.80
2019-04-23T02:16:44.080Z,6.87
2019-04-23T02:22:01.188Z,8.03
2019-04-23T02:24:39.592Z,10.63
2019-04-23T02:27:05.860Z,16.20
2019-04-23T02:29:54.114Z,10.77
2019-04-23T02:32:09.202Z,10.43
2019-04-23T02:35:01.648Z,10.30
2019-04-23T02:37:24.433Z,10.90
2019-04-23T02:42:49.672Z,24.03
2019-04-23T02:44:56.426Z,30.00
2019-04-23T02:47:44.033Z,28.80
2019-04-23T02:50:12.729Z,34.20
2019-04-23T02:52:28.838Z,25.87
2019-04-23T02:55:14.780Z,12.83
2019-04-23T03:00:19.314Z,6.20
2019-04-23T03:02:45.099Z,5.80
2019-04-23T03:05:18.877Z,5.37
2019-04-23T03:12:46.879Z,5.20
2019-04-23T03:15:50.459Z,5.13
2019-04-23T03:18:47.733Z,20.17
2019-04-23T03:21:46.370Z,39.63
2019-04-23T03:42:11.602Z,70.97
2019-04-23T03:44:49.215Z,71.53
2019-04-23T03:47:18.760Z,61.10
2019-04-23T03:50:04.899Z,58.97
2019-04-23T03:52:37.016Z,62.97
2019-04-23T03:57:24.731Z,56.57
2019-04-23T04:00:13.080Z,41.40
2019-04-23T04:04:49.849Z,32.23
2019-04-23T04:12:36.072Z,32.03
2019-04-23T04:15:25.194Z,30.10
2019-04-23T04:25:15.830Z,31.77
2019-04-23T04:27:54.481Z,25.40
2019-04-23T04:33:02.318Z,17.67
2019-04-23T04:40:29.473Z,17.73
2019-04-23T04:43:04.871Z,16.83
2019-04-23T04:45:42.351Z,18.40
2019-04-23T04:47:53.695Z,14.70
2019-04-23T04:50:26.890Z,11.13
2019-04-23T04:55:41.783Z,9.97
2019-04-23T04:58:03.041Z,10.20
2019-04-23T05:03:22.232Z,9.10
2019-04-23T05:08:23.928Z,14.17
2019-04-23T05:15:50.069Z,9.30
2019-04-23T05:18:37.893Z,8.03
2019-04-23T05:21:05.813Z,8.47
2019-04-23T05:23:47.601Z,7.20
2019-04-23T05:26:26.508Z,7.57
2019-04-23T05:29:00.132Z,7.00
2019-04-23T05:33:59.931Z,7.33
2019-04-23T05:41:43.673Z,8.20
2019-04-23T05:44:02.345Z,8.17
2019-04-23T05:46:33.177Z,9.77
2019-04-23T05:49:05.997Z,9.77
2019-04-23T05:51:46.512Z,10.13
2019-04-23T05:54:08.488Z,9.80
2019-04-23T05:56:38.801Z,12.23
2019-04-23T05:59:14.634Z,10.80
2019-04-23T06:04:17.555Z,11.50
2019-04-23T06:06:54.177Z,12.73
2019-04-23T06:09:19.186Z,13.20
2019-04-23T06:17:09.333Z,6.40
2019-04-23T06:19:22.743Z,6.57
2019-04-23T06:24:44.311Z,6.73
2019-04-23T06:27:00.982Z,6.80
2019-04-23T06:29:35.718Z,6.30
2019-04-23T06:32:02.769Z,6.77
2019-04-23T06:42:06.000Z,7.13
2019-04-23T06:47:28.801Z,9.10
2019-04-23T06:49:55.663Z,6.27
2019-04-23T06:52:41.074Z,6.70
2019-04-23T06:55:01.683Z,20.97
2019-04-23T06:57:25.903Z,16.63
2019-04-23T07:00:23.951Z,12.13
2019-04-23T07:02:39.145Z,7.83
2019-04-23T07:05:15.846Z,22.70
2019-04-23T07:07:57.405Z,20.73
2019-04-23T07:10:25.243Z,10.90
2019-04-23T07:12:47.107Z,8.63
2019-04-23T07:15:30.923Z,7.50
2019-04-23T07:17:50.085Z,7.20
2019-04-23T07:20:20.104Z,6.20
2019-04-23T07:22:57.063Z,8.00
2019-04-23T07:25:29.587Z,8.37
2019-04-23T07:27:58.507Z,37.50
2019-04-23T07:30:29.483Z,64.00
2019-04-23T07:32:57.277Z,57.33
2019-04-23T07:35:32.028Z,55.10
2019-04-23T07:38:16.311Z,53.20
2019-04-23T07:40:59.834Z,54.27
2019-04-23T07:43:47.623Z,51.73
2019-04-23T07:46:35.028Z,36.13
2019-04-23T07:48:56.019Z,29.60
2019-04-23T07:51:29.428Z,22.50
2019-04-23T07:54:01.747Z,25.73
2019-04-23T07:56:27.926Z,43.40
2019-04-23T07:59:06.821Z,33.67
2019-04-23T08:01:34.232Z,27.40
2019-04-23T08:04:03.102Z,25.57
2019-04-23T08:06:37.369Z,29.57
2019-04-23T08:09:08.884Z,23.20
2019-04-23T08:11:42.672Z,19.90
2019-04-23T08:14:09.386Z,20.57
2019-04-23T08:16:40.553Z,21.03
2019-04-23T08:19:14.281Z,19.50
2019-04-23T08:21:52.510Z,21.97
2019-04-23T08:24:45.060Z,16.23
2019-04-23T08:27:24.057Z,16.40
2019-04-23T08:29:55.689Z,13.80
2019-04-23T08:32:27.798Z,16.80
2019-04-23T08:35:01.318Z,36.90
2019-04-23T08:37:49.430Z,40.57
2019-04-23T08:40:11.737Z,36.97
2019-04-23T08:42:52.887Z,43.73
2019-04-23T08:50:37.182Z,27.83
2019-04-23T08:56:00.389Z,34.87
2019-04-23T09:08:43.763Z,26.57
2019-04-23T09:16:27.360Z,17.37
2019-04-23T09:18:53.014Z,23.30
2019-04-23T09:21:16.166Z,24.50
2019-04-23T09:23:46.679Z,14.60
2019-04-23T09:26:06.173Z,15.70
2019-04-23T09:34:26.123Z,22.20
2019-04-23T09:37:21.078Z,17.33
2019-04-23T09:40:25.280Z,16.10
2019-04-23T09:43:06.834Z,11.67
2019-04-23T09:46:10.518Z,16.33
2019-04-23T09:48:41.103Z,13.50
2019-04-23T09:51:03.152Z,12.50
2019-04-23T09:53:35.846Z,11.93
2019-04-23T09:55:59.678Z,12.00
2019-04-23T09:58:34.594Z,11.93
2019-04-23T10:01:23.756Z,14.00
2019-04-23T10:03:38.991Z,14.33
2019-04-23T10:06:04.139Z,14.07
2019-04-23T10:08:35.703Z,14.10
2019-04-23T10:11:02.850Z,13.13
2019-04-23T10:13:34.466Z,13.40
2019-04-23T10:16:06.426Z,10.80
2019-04-23T10:18:37.333Z,15.27
2019-04-23T10:21:07.816Z,17.87
2019-04-23T10:23:39.098Z,16.70
2019-04-23T10:26:10.089Z,15.07
2019-04-23T10:28:49.689Z,14.97
2019-04-23T10:31:20.832Z,14.00
2019-04-23T10:33:52.368Z,15.40
2019-04-23T10:36:27.132Z,11.87
2019-04-23T10:39:02.563Z,12.90
2019-04-23T10:41:28.013Z,11.50
2019-04-23T10:44:17.332Z,12.47
2019-04-23T10:47:38.570Z,12.50
2019-04-23T10:50:35.482Z,12.10
2019-04-23T10:53:13.233Z,11.70
2019-04-23T10:55:35.352Z,12.67
2019-04-23T10:58:02.022Z,13.17
2019-04-23T11:00:35.856Z,13.93
2019-04-23T11:03:21.676Z,12.17
2019-04-23T11:08:11.164Z,13.27
2019-04-23T11:10:44.337Z,14.90
2019-04-23T11:13:25.745Z,12.77
2019-04-23T11:16:15.371Z,12.53
2019-04-23T11:18:38.409Z,12.80
2019-04-23T11:20:59.007Z,13.40
2019-04-23T11:23:29.171Z,13.60
2019-04-23T11:26:10.908Z,12.53
2019-04-23T11:28:36.278Z,13.23
2019-04-23T11:31:17.301Z,13.03
2019-04-23T11:38:02.540Z,13.53
2019-04-23T11:41:25.013Z,12.00
2019-04-23T11:43:46.735Z,11.50
2019-04-23T11:46:41.209Z,13.60
2019-04-23T11:53:54.643Z,12.77
2019-04-23T11:59:04.747Z,11.97
2019-04-23T12:02:00.803Z,12.13
2019-04-23T12:05:02.418Z,11.80
2019-04-23T12:07:36.142Z,11.20
2019-04-23T12:10:23.682Z,12.20
2019-04-23T12:12:44.936Z,11.23
2019-04-23T12:15:30.436Z,11.50
2019-04-23T12:17:51.235Z,12.93
2019-04-23T12:20:33.727Z,12.60
2019-04-23T12:23:18.989Z,11.47
2019-04-23T12:25:31.019Z,11.23
2019-04-23T12:27:59.371Z,12.20
2019-04-23T12:33:13.001Z,11.57
2019-04-23T12:35:40.695Z,12.00
2019-04-23T12:38:14.257Z,10.60
2019-04-23T12:40:56.314Z,9.97
2019-04-23T12:43:17.563Z,7.10
2019-04-23T12:45:42.182Z,9.70
2019-04-23T12:55:50.510Z,9.83
2019-04-23T12:58:32.130Z,11.07
2019-04-23T13:00:51.482Z,12.60
2019-04-23T13:03:30.209Z,10.47
2019-04-23T13:05:57.329Z,12.37
2019-04-23T13:08:38.184Z,11.73
2019-04-23T13:11:10.296Z,11.60
2019-04-23T13:16:21.510Z,10.53
2019-04-23T13:18:44.750Z,12.53
2019-04-23T13:21:43.234Z,11.90
2019-04-23T13:23:47.611Z,12.00
2019-04-23T13:26:16.108Z,11.60
2019-04-23T13:28:52.648Z,10.80
2019-04-23T13:31:29.306Z,11.50
2019-04-23T13:33:58.745Z,9.63
2019-04-23T13:36:36.159Z,11.90
2019-04-23T13:39:07.213Z,11.37
2019-04-23T13:41:34.836Z,10.10
2019-04-23T13:44:00.384Z,9.93
2019-04-23T13:46:35.912Z,9.10
2019-04-23T13:49:07.655Z,9.17
2019-04-23T13:52:12.783Z,9.17
2019-04-23T13:54:39.369Z,9.17
2019-04-23T13:57:23.930Z,10.60
2019-04-23T13:59:31.460Z,10.00
2019-04-23T14:01:54.773Z,9.33
2019-04-23T14:07:17.764Z,11.87
2019-04-23T14:10:11.822Z,8.73
2019-04-23T14:12:17.731Z,11.10
2019-04-23T14:20:01.051Z,8.77
2019-04-23T14:25:07.572Z,11.90
2019-04-23T14:30:13.421Z,10.60
2019-04-23T14:32:43.298Z,13.00
2019-04-23T14:35:28.481Z,12.83
2019-04-23T14:37:58.840Z,10.90
2019-04-23T14:40:23.961Z,11.43
2019-04-23T14:43:00.078Z,11.10
2019-04-23T14:45:42.576Z,12.23
2019-04-23T14:48:05.791Z,11.10
2019-04-23T14:53:13.055Z,11.27
2019-04-23T14:55:51.015Z,11.17
2019-04-23T14:58:27.781Z,10.90
2019-04-23T15:01:01.649Z,10.03
2019-04-23T15:03:26.852Z,11.27
2019-04-23T15:06:04.961Z,10.20
2019-04-23T15:08:32.870Z,11.77
2019-04-23T15:11:13.211Z,10.70
2019-04-23T15:13:28.748Z,9.63
2019-04-23T15:16:08.092Z,13.17
2019-04-23T15:19:07.928Z,11.47
2019-04-23T15:24:00.218Z,11.40
2019-04-23T15:27:21.812Z,10.00
2019-04-23T15:28:37.503Z,9.83
2019-04-23T15:39:19.609Z,10.10
2019-04-23T15:41:40.051Z,11.40
2019-04-23T15:44:10.708Z,12.50
2019-04-23T15:46:47.109Z,14.10
2019-04-23T15:51:54.196Z,12.73
2019-04-23T15:54:19.711Z,13.30
2019-04-23T15:56:59.532Z,16.93
2019-04-23T15:59:27.518Z,16.93
2019-04-23T16:01:43.474Z,10.80
2019-04-23T16:03:57.571Z,12.03
2019-04-23T16:06:32.178Z,12.83
2019-04-23T16:09:16.343Z,17.60
2019-04-23T16:11:51.899Z,21.10
2019-04-23T16:14:35.809Z,14.33
2019-04-23T16:17:09.953Z,14.40
2019-04-23T16:19:56.840Z,11.50
2019-04-23T16:22:18.937Z,13.53
2019-04-23T16:24:56.180Z,15.50
2019-04-23T16:27:16.746Z,15.40
2019-04-23T16:30:06.293Z,11.97
2019-04-23T16:35:28.682Z,15.93
2019-04-23T16:38:04.219Z,20.80
2019-04-23T16:40:31.519Z,14.73
2019-04-23T16:43:03.609Z,14.23
2019-04-23T16:48:09.266Z,15.37
2019-04-23T16:50:41.105Z,11.70
2019-04-23T16:53:21.223Z,14.07
2019-04-23T16:58:21.890Z,15.90
2019-04-23T17:00:51.527Z,17.27
2019-04-23T17:03:19.357Z,17.47
2019-04-23T17:05:53.700Z,13.93
2019-04-23T17:11:06.722Z,15.70
2019-04-23T17:13:20.928Z,14.60
2019-04-23T17:15:58.096Z,16.83
2019-04-23T17:18:37.589Z,13.73
2019-04-23T17:20:58.295Z,13.63
2019-04-23T17:23:39.597Z,13.00
2019-04-23T17:26:13.491Z,11.13
2019-04-23T17:28:39.079Z,12.80
2019-04-23T17:31:26.199Z,11.17
2019-04-23T17:33:41.640Z,11.40
2019-04-23T17:36:24.839Z,9.80
2019-04-23T17:39:07.113Z,11.20
2019-04-23T17:42:03.307Z,11.03
2019-04-23T17:44:23.606Z,11.73
2019-04-23T17:46:56.546Z,10.80
2019-04-23T17:49:51.232Z,11.43
2019-04-23T17:52:08.323Z,11.60
2019-04-23T17:54:35.916Z,10.90
2019-04-23T17:57:07.630Z,10.70
2019-04-23T18:05:02.852Z,10.43
2019-04-23T18:10:18.311Z,10.13
2019-04-23T18:15:04.998Z,10.87
2019-04-23T18:20:16.291Z,12.07
2019-04-23T18:25:37.419Z,9.70
2019-04-23T18:28:00.104Z,10.80
2019-04-23T18:31:10.319Z,10.30
2019-04-23T18:34:02.622Z,10.40
2019-04-23T18:36:19.708Z,11.10
2019-04-23T18:39:02.965Z,9.60
2019-04-23T18:41:27.557Z,10.57
2019-04-23T18:44:05.977Z,9.43
2019-04-23T18:46:36.698Z,10.50
2019-04-23T18:49:01.786Z,10.50
2019-04-23T18:51:38.517Z,9.87
2019-04-23T18:54:01.097Z,10.00
2019-04-23T18:56:58.330Z,10.97
2019-04-23T18:59:12.705Z,9.13
2019-04-23T19:02:20.750Z,9.47
2019-04-23T19:13:14.243Z,14.93
2019-04-23T19:15:46.126Z,14.10
2019-04-23T19:18:19.203Z,20.80
2019-04-23T19:25:43.992Z,29.73
2019-04-23T19:28:34.614Z,31.17
2019-04-23T19:31:04.902Z,31.33
2019-04-23T19:41:14.379Z,25.10
2019-04-23T19:43:53.077Z,22.07
2019-04-23T19:46:22.051Z,25.60
2019-04-23T19:51:26.827Z,24.13
2019-04-23T19:54:06.663Z,22.43
2019-04-23T19:56:29.168Z,20.53
2019-04-23T19:58:56.668Z,16.67
2019-04-23T20:01:33.951Z,19.93
2019-04-23T20:03:57.597Z,12.87
2019-04-23T20:06:58.558Z,14.67
2019-04-23T20:09:32.654Z,15.17
2019-04-23T20:11:50.176Z,13.20
2019-04-23T20:14:14.160Z,14.13
2019-04-23T20:17:02.508Z,12.80
2019-04-23T20:19:27.884Z,23.30
2019-04-23T20:22:06.314Z,17.93
2019-04-23T20:24:32.330Z,20.10
2019-04-23T20:27:06.150Z,21.37
2019-04-23T20:38:00.241Z,12.50
2019-04-23T20:40:08.692Z,11.17
2019-04-23T20:42:44.462Z,12.20
2019-04-23T20:47:46.765Z,11.37
2019-04-23T20:50:05.004Z,9.10
2019-04-23T20:52:46.894Z,6.40
2019-04-23T20:55:47.551Z,7.40
2019-04-23T20:58:07.237Z,5.80
2019-04-23T21:00:56.688Z,5.27
2019-04-23T21:03:45.614Z,5.93
2019-04-23T21:05:50.019Z,4.33
2019-04-23T21:08:38.828Z,3.63
2019-04-23T21:15:59.692Z,4.10
2019-04-23T21:18:37.897Z,3.87
2019-04-23T21:21:06.617Z,2.90
2019-04-23T21:23:38.092Z,3.00
2019-04-23T21:26:08.181Z,3.40
2019-04-23T21:31:34.408Z,3.00
2019-04-23T21:34:03.226Z,4.43
2019-04-23T21:39:26.920Z,3.00
2019-04-23T21:44:28.645Z,5.57
2019-04-23T21:47:07.796Z,11.60
2019-04-23T21:49:47.073Z,4.43
2019-04-23T21:54:47.151Z,2.90
2019-04-23T21:57:11.041Z,3.03
2019-04-23T21:59:50.557Z,3.80
2019-04-23T22:02:36.426Z,15.03
2019-04-23T22:04:54.040Z,16.53
2019-04-23T22:07:25.543Z,23.07
2019-04-23T22:09:59.159Z,16.70
2019-04-23T22:12:24.754Z,14.57
2019-04-23T22:17:36.092Z,6.10
2019-04-23T22:22:45.486Z,7.90
2019-04-23T22:25:11.483Z,4.63
2019-04-23T22:27:41.292Z,4.33
2019-04-23T22:30:05.662Z,4.40
2019-04-23T22:32:47.699Z,4.97
2019-04-23T22:35:10.733Z,12.80
2019-04-23T22:37:58.284Z,8.60
2019-04-23T22:43:08.983Z,9.20
2019-04-23T22:47:55.017Z,3.70
2019-04-23T22:50:29.659Z,4.13
2019-04-23T22:53:00.651Z,4.70
2019-04-23T22:55:32.885Z,4.20
2019-04-23T23:00:35.029Z,5.50
2019-04-23T23:03:29.451Z,4.97
2019-04-23T23:08:37.552Z,6.10
2019-04-23T23:13:48.094Z,5.53
2019-04-23T23:16:06.825Z,3.30
2019-04-23T23:18:37.025Z,3.50
2019-04-23T23:21:16.333Z,3.17
2019-04-23T23:23:42.026Z,3.50
2019-04-23T23:31:16.321Z,3.47
2019-04-23T23:36:19.922Z,5.93
2019-04-23T23:39:02.858Z,5.87
2019-04-23T23:41:28.203Z,6.87
2019-04-23T23:44:26.360Z,6.40
2019-04-23T23:46:37.835Z,7.27
2019-04-23T23:49:05.861Z,4.90
2019-04-23T23:51:49.516Z,6.03
2019-04-23T23:54:12.009Z,7.00
2019-04-23T23:56:41.971Z,6.70
2019-04-23T23:59:12.577Z,7.17
